createdAt,value
2023-04-05T00:08:50.273Z,100.00
2023-04-05T00:18:52.752Z,100.00
2023-04-05T00:28:55.069Z,100.00
2023-04-05T00:38:57.470Z,100.00
2023-04-05T00:48:59.898Z,100.00
2023-04-05T00:59:02.484Z,100.00
2023-04-05T01:09:26.212Z,100.00
2023-04-05T01:19:30.290Z,100.00
2023-04-05T01:29:50.902Z,100.00
2023-04-05T01:39:53.489Z,100.00
2023-04-05T01:49:55.875Z,100.00
2023-04-05T01:59:58.336Z,100.00
2023-04-05T02:10:00.676Z,100.00
2023-04-05T02:20:03.140Z,100.00
2023-04-05T02:30:06.302Z,100.00
2023-04-05T02:40:12.048Z,100.00
2023-04-05T02:50:15.136Z,100.00
2023-04-05T03:00:17.950Z,100.00
2023-04-05T03:10:26.742Z,100.00
2023-04-05T03:20:28.934Z,100.00
2023-04-05T03:30:34.651Z,100.00
2023-04-05T03:40:37.018Z,100.00
2023-04-05T03:50:39.553Z,100.00
2023-04-05T04:00:42.151Z,100.00
2023-04-05T04:10:44.577Z,100.00
2023-04-05T04:20:48.200Z,100.00
2023-04-05T04:30:50.521Z,100.00
2023-04-05T04:40:54.181Z,100.00
2023-04-05T04:50:57.718Z,100.00
2023-04-05T05:01:00.565Z,100.00
2023-04-05T05:11:06.735Z,100.00
2023-04-05T05:21:09.103Z,100.00
2023-04-05T05:31:12.603Z,100.00
2023-04-05T05:41:15.346Z,100.00
2023-04-05T05:51:18.671Z,100.00
2023-04-05T06:01:23.540Z,100.00
2023-04-05T06:11:27.081Z,100.00
2023-04-05T06:21:29.573Z,100.00
2023-04-05T06:31:34.069Z,100.00
2023-04-05T06:41:36.664Z,100.00
2023-04-05T06:51:39.261Z,100.00
2023-04-05T07:01:42.691Z,100.00
2023-04-05T07:11:46.120Z,100.00
2023-04-05T07:21:49.682Z,100.00
2023-04-05T07:31:52.306Z,100.00
2023-04-05T07:41:54.905Z,100.00
2023-04-05T07:51:58.226Z,100.00
2023-04-05T08:02:05.017Z,96.39
2023-04-05T08:12:15.345Z,88.39
2023-04-05T08:22:19.294Z,79.70
2023-04-05T08:32:22.087Z,76.87
2023-04-05T08:42:33.279Z,75.14
2023-04-05T08:52:38.850Z,65.82
2023-04-05T09:02:45.805Z,60.72
2023-04-05T09:12:48.534Z,64.62
2023-04-05T09:22:51.454Z,62.28
2023-04-05T09:32:55.884Z,59.99
2023-04-05T09:42:58.608Z,57.29
2023-04-05T09:53:11.006Z,56.01
2023-04-05T10:03:13.649Z,53.59
2023-04-05T10:13:17.719Z,52.87
2023-04-05T10:23:28.618Z,48.80
2023-04-05T10:33:46.451Z,46.73
2023-04-05T10:43:52.420Z,47.25
2023-04-05T10:53:56.898Z,46.42
2023-04-05T11:04:13.404Z,45.95
2023-04-05T11:14:26.959Z,43.59
2023-04-05T11:24:53.826Z,41.98
2023-04-05T11:35:06.912Z,42.60
2023-04-05T11:45:10.485Z,41.59
2023-04-05T11:55:13.047Z,41.84
2023-04-05T12:05:15.775Z,39.54
2023-04-05T12:15:19.478Z,42.16
2023-04-05T12:25:22.786Z,40.77
2023-04-05T12:35:33.321Z,38.19
2023-04-05T12:45:44.225Z,38.67
2023-04-05T12:55:57.892Z,37.63
2023-04-05T13:06:00.505Z,38.79
2023-04-05T13:16:03.024Z,37.28
2023-04-05T13:26:06.492Z,39.95
2023-04-05T13:36:09.752Z,36.75
2023-04-05T13:46:12.350Z,33.44
2023-04-05T13:56:15.194Z,34.95
2023-04-05T14:06:18.156Z,32.76
2023-04-05T14:16:20.686Z,32.19
2023-04-05T14:26:26.578Z,32.39
2023-04-05T14:36:29.361Z,34.70
2023-04-05T14:46:32.013Z,33.71
2023-04-05T14:56:34.723Z,32.49
2023-04-05T15:06:38.111Z,33.90
2023-04-05T15:16:40.669Z,31.96
2023-04-05T15:26:43.277Z,33.68
2023-04-05T15:36:46.610Z,31.47
2023-04-05T15:46:49.585Z,30.45
2023-04-05T15:56:52.248Z,31.22
2023-04-05T16:06:55.726Z,31.66
2023-04-05T16:16:58.481Z,34.71
2023-04-05T16:27:01.157Z,34.95
2023-04-05T16:37:03.794Z,34.40
2023-04-05T16:47:06.994Z,34.70
2023-04-05T16:57:09.407Z,37.59
2023-04-05T17:07:12.035Z,43.78
2023-04-05T17:17:14.752Z,45.06
2023-04-05T17:27:17.315Z,42.02
2023-04-05T17:37:19.983Z,46.71
2023-04-05T17:47:22.483Z,48.90
2023-04-05T17:57:25.153Z,51.04
2023-04-05T18:07:27.858Z,53.04
2023-04-05T18:17:30.397Z,56.91
2023-04-05T18:27:33.616Z,61.90
2023-04-05T18:37:36.926Z,68.56
2023-04-05T18:47:39.704Z,75.85
2023-04-05T18:57:42.368Z,81.76
2023-04-05T19:07:45.196Z,87.32
2023-04-05T19:17:47.856Z,91.46
2023-04-05T19:27:50.964Z,96.28
2023-04-05T19:37:53.844Z,98.68
2023-04-05T19:47:58.358Z,100.00
2023-04-05T19:58:03.370Z,100.00
2023-04-05T20:08:08.631Z,100.00
2023-04-05T20:18:15.350Z,100.00
2023-04-05T20:28:34.633Z,100.00
2023-04-05T20:38:41.500Z,100.00
2023-04-05T20:48:45.037Z,100.00
2023-04-05T20:58:47.660Z,100.00
2023-04-05T21:08:50.353Z,100.00
2023-04-05T21:18:53.332Z,100.00
2023-04-05T21:28:56.150Z,100.00
2023-04-05T21:38:58.718Z,100.00
2023-04-05T21:49:01.206Z,100.00
2023-04-05T21:59:04.246Z,100.00
2023-04-05T22:09:07.644Z,100.00
2023-04-05T22:19:13.822Z,100.00
2023-04-05T22:29:17.208Z,100.00
2023-04-05T22:39:19.593Z,100.00
2023-04-05T22:49:22.594Z,100.00
2023-04-05T22:59:25.169Z,100.00
2023-04-05T23:09:27.804Z,100.00
2023-04-05T23:19:30.133Z,100.00
2023-04-05T23:29:32.418Z,100.00
2023-04-05T23:39:34.955Z,100.00
2023-04-05T23:49:37.431Z,100.00
2023-04-05T23:59:40.346Z,100.00
